sensor_id;sensor_type;location;lat;lon;timestamp;pressure;altitude;pressure_sealevel;temperature;humidity
81352;BME280;70809;52.184;13.422;2023-08-07T00:00:06;99971.97;;;15.07;92.15
81352;BME280;70809;52.184;13.422;2023-08-07T00:01:09;99968.97;;;14.76;92.33
81352;BME280;70809;52.184;13.422;2023-08-07T00:02:11;99968.97;;;14.76;93.59
81352;BME280;70809;52.184;13.422;2023-08-07T00:03:13;99971.00;;;14.58;93.81
81352;BME280;70809;52.184;13.422;2023-08-07T00:04:14;99966.81;;;14.41;95.07
81352;BME280;70809;52.184;13.422;2023-08-07T00:05:16;99963.00;;;14.60;94.91
81352;BME280;70809;52.184;13.422;2023-08-07T00:06:18;99963.13;;;14.52;94.57
81352;BME280;70809;52.184;13.422;2023-08-07T00:07:19;99967.41;;;14.63;94.48
81352;BME280;70809;52.184;13.422;2023-08-07T00:08:21;99962.44;;;14.37;95.25
81352;BME280;70809;52.184;13.422;2023-08-07T00:09:24;99970.28;;;14.47;95.09
81352;BME280;70809;52.184;13.422;2023-08-07T00:10:26;99966.75;;;14.44;94.58
81352;BME280;70809;52.184;13.422;2023-08-07T00:11:27;99972.84;;;14.53;94.68
81352;BME280;70809;52.184;13.422;2023-08-07T00:12:29;99962.63;;;14.23;94.97
81352;BME280;70809;52.184;13.422;2023-08-07T00:13:31;99965.09;;;14.37;95.23
81352;BME280;70809;52.184;13.422;2023-08-07T00:14:32;99966.81;;;14.41;94.74
81352;BME280;70809;52.184;13.422;2023-08-07T00:15:34;99968.75;;;14.26;94.97
81352;BME280;70809;52.184;13.422;2023-08-07T00:16:38;99965.38;;;14.15;95.56
81352;BME280;70809;52.184;13.422;2023-08-07T00:17:40;99963.75;;;14.05;96.06
81352;BME280;70809;52.184;13.422;2023-08-07T00:18:42;99962.84;;;14.04;95.55
81352;BME280;70809;52.184;13.422;2023-08-07T00:19:44;99963.81;;;13.99;95.89
81352;BME280;70809;52.184;13.422;2023-08-07T00:20:45;99964.63;;;14.05;96.10
81352;BME280;70809;52.184;13.422;2023-08-07T00:21:47;99966.38;;;14.06;95.26
81352;BME280;70809;52.184;13.422;2023-08-07T00:22:48;99969.88;;;14.12;95.50
81352;BME280;70809;52.184;13.422;2023-08-07T00:23:50;99956.69;;;14.02;95.49
81352;BME280;70809;52.184;13.422;2023-08-07T00:24:53;99963.75;;;14.05;95.60
81352;BME280;70809;52.184;13.422;2023-08-07T00:25:55;99957.31;;;14.21;95.34
81352;BME280;70809;52.184;13.422;2023-08-07T00:26:56;99965.28;;;14.21;94.61
81352;BME280;70809;52.184;13.422;2023-08-07T00:27:58;99959.97;;;14.21;94.95
81352;BME280;70809;52.184;13.422;2023-08-07T00:29:01;99961.88;;;14.13;95.30
81352;BME280;70809;52.184;13.422;2023-08-07T00:30:04;99957.31;;;14.23;95.20
81352;BME280;70809;52.184;13.422;2023-08-07T00:31:06;99953.84;;;14.16;95.32
81352;BME280;70809;52.184;13.422;2023-08-07T00:32:07;99953.97;;;14.08;95.63
81352;BME280;70809;52.184;13.422;2023-08-07T00:33:09;99947.91;;;13.97;96.21
81352;BME280;70809;52.184;13.422;2023-08-07T00:34:11;99954.88;;;14.06;95.48
81352;BME280;70809;52.184;13.422;2023-08-07T00:35:12;99950.50;;;14.02;95.55
81352;BME280;70809;52.184;13.422;2023-08-07T00:36:14;99955.13;;;13.86;95.87
81352;BME280;70809;52.184;13.422;2023-08-07T00:37:16;99956.63;;;14.08;95.87
81352;BME280;70809;52.184;13.422;2023-08-07T00:38:17;99953.38;;;13.85;95.70
81352;BME280;70809;52.184;13.422;2023-08-07T00:39:19;99959.41;;;13.99;95.97
81352;BME280;70809;52.184;13.422;2023-08-07T00:40:22;99954.81;;;14.12;95.38
81352;BME280;70809;52.184;13.422;2023-08-07T00:41:23;99956.63;;;14.08;94.74
81352;BME280;70809;52.184;13.422;2023-08-07T00:42:25;99950.53;;;13.99;95.03
81352;BME280;70809;52.184;13.422;2023-08-07T00:43:27;99956.84;;;13.90;95.59
81352;BME280;70809;52.184;13.422;2023-08-07T00:44:28;99956.78;;;13.93;95.68
81352;BME280;70809;52.184;13.422;2023-08-07T00:45:43;99960.41;;;13.88;96.07
81352;BME280;70809;52.184;13.422;2023-08-07T00:46:46;99955.06;;;13.91;96.17
81352;BME280;70809;52.184;13.422;2023-08-07T00:47:48;99955.03;;;13.92;95.04
81352;BME280;70809;52.184;13.422;2023-08-07T00:48:51;99949.75;;;13.94;95.19
81352;BME280;70809;52.184;13.422;2023-08-07T00:49:53;99951.59;;;13.86;95.22
81352;BME280;70809;52.184;13.422;2023-08-07T00:50:55;99954.94;;;14.01;94.55
81352;BME280;70809;52.184;13.422;2023-08-07T00:51:57;99953.88;;;14.15;94.46
81352;BME280;70809;52.184;13.422;2023-08-07T00:52:59;99959.41;;;13.98;94.38
81352;BME280;70809;52.184;13.422;2023-08-07T00:54:03;99951.47;;;13.96;94.63
81352;BME280;70809;52.184;13.422;2023-08-07T00:55:05;99952.31;;;13.98;94.74
81352;BME280;70809;52.184;13.422;2023-08-07T00:56:12;99955.84;;;13.99;94.45
81352;BME280;70809;52.184;13.422;2023-08-07T00:57:14;99954.75;;;14.15;94.18
81352;BME280;70809;52.184;13.422;2023-08-07T00:58:17;99955.66;;;14.14;93.93
81352;BME280;70809;52.184;13.422;2023-08-07T00:59:19;99953.19;;;13.99;94.37
81352;BME280;70809;52.184;13.422;2023-08-07T01:00:21;99954.13;;;13.96;94.55
81352;BME280;70809;52.184;13.422;2023-08-07T01:01:23;99959.16;;;14.18;94.27
81352;BME280;70809;52.184;13.422;2023-08-07T01:02:24;99964.56;;;14.08;94.26
81352;BME280;70809;52.184;13.422;2023-08-07T01:03:26;99957.22;;;14.29;93.97
81352;BME280;70809;52.184;13.422;2023-08-07T01:04:28;99953.47;;;14.45;93.24
81352;BME280;70809;52.184;13.422;2023-08-07T01:05:29;99957.88;;;14.48;92.86
81352;BME280;70809;52.184;13.422;2023-08-07T01:06:31;99962.63;;;14.23;93.78
81352;BME280;70809;52.184;13.422;2023-08-07T01:07:33;99957.41;;;14.17;93.74
81352;BME280;70809;52.184;13.422;2023-08-07T01:08:35;99957.50;;;14.07;94.21
81352;BME280;70809;52.184;13.422;2023-08-07T01:09:37;99960.72;;;14.31;94.47
81352;BME280;70809;52.184;13.422;2023-08-07T01:10:47;99959.66;;;14.46;93.53
81352;BME280;70809;52.184;13.422;2023-08-07T01:12:02;99956.88;;;14.55;92.96
81352;BME280;70809;52.184;13.422;2023-08-07T01:13:13;99956.47;;;14.19;94.04
81352;BME280;70809;52.184;13.422;2023-08-07T01:14:23;99954.75;;;14.15;94.81
81352;BME280;70809;52.184;13.422;2023-08-07T01:15:30;99957.22;;;14.29;94.32
81352;BME280;70809;52.184;13.422;2023-08-07T01:16:37;99961.81;;;14.18;94.37
81352;BME280;70809;52.184;13.422;2023-08-07T01:17:42;99959.16;;;14.18;94.58
81352;BME280;70809;52.184;13.422;2023-08-07T01:18:45;99962.78;;;14.11;95.19
81352;BME280;70809;52.184;13.422;2023-08-07T01:19:50;99955.81;;;14.02;95.48
81352;BME280;70809;52.184;13.422;2023-08-07T01:20:52;99960.91;;;14.19;95.64
81352;BME280;70809;52.184;13.422;2023-08-07T01:22:05;99955.56;;;14.20;95.15
81352;BME280;70809;52.184;13.422;2023-08-07T01:23:07;99961.97;;;14.05;94.94
81352;BME280;70809;52.184;13.422;2023-08-07T01:24:08;99957.63;;;13.98;96.15
81352;BME280;70809;52.184;13.422;2023-08-07T01:25:10;99952.38;;;13.92;96.70
81352;BME280;70809;52.184;13.422;2023-08-07T01:26:12;99954.81;;;14.09;96.70
81352;BME280;70809;52.184;13.422;2023-08-07T01:27:32;99949.78;;;13.88;95.93
81352;BME280;70809;52.184;13.422;2023-08-07T01:28:38;99949.78;;;13.89;96.90
81352;BME280;70809;52.184;13.422;2023-08-07T01:29:49;99947.75;;;14.08;96.71
81352;BME280;70809;52.184;13.422;2023-08-07T01:30:55;99946.91;;;14.04;96.09
81352;BME280;70809;52.184;13.422;2023-08-07T01:32:03;99950.53;;;14.00;96.56
81352;BME280;70809;52.184;13.422;2023-08-07T01:33:15;99945.31;;;13.93;96.80
81352;BME280;70809;52.184;13.422;2023-08-07T01:34:19;99947.97;;;13.93;96.78
81352;BME280;70809;52.184;13.422;2023-08-07T01:35:23;99950.63;;;13.91;97.00
81352;BME280;70809;52.184;13.422;2023-08-07T01:36:29;99940.06;;;13.87;96.77
81352;BME280;70809;52.184;13.422;2023-08-07T01:37:37;99940.06;;;13.88;96.77
81352;BME280;70809;52.184;13.422;2023-08-07T01:38:41;99942.50;;;14.03;96.83
81352;BME280;70809;52.184;13.422;2023-08-07T01:39:45;99941.81;;;13.89;97.14
81352;BME280;70809;52.184;13.422;2023-08-07T01:40:48;99942.66;;;13.93;96.89
81352;BME280;70809;52.184;13.422;2023-08-07T01:41:50;99934.84;;;13.80;97.23
81352;BME280;70809;52.184;13.422;2023-08-07T01:42:52;99938.41;;;13.79;97.39
81352;BME280;70809;52.184;13.422;2023-08-07T01:43:54;99928.63;;;13.81;97.70
81352;BME280;70809;52.184;13.422;2023-08-07T01:44:56;99928.44;;;13.97;97.39
81352;BME280;70809;52.184;13.422;2023-08-07T01:45:58;99928.34;;;14.03;96.51
81352;BME280;70809;52.184;13.422;2023-08-07T01:47:00;99929.59;;;13.76;97.02
81352;BME280;70809;52.184;13.422;2023-08-07T01:48:01;99928.72;;;13.75;97.65
81352;BME280;70809;52.184;13.422;2023-08-07T01:49:03;99935.72;;;13.82;97.48
81352;BME280;70809;52.184;13.422;2023-08-07T01:50:06;99924.16;;;13.85;97.44
81352;BME280;70809;52.184;13.422;2023-08-07T01:51:07;99929.53;;;13.80;97.19
81352;BME280;70809;52.184;13.422;2023-08-07T01:52:09;99930.34;;;13.86;97.58
81352;BME280;70809;52.184;13.422;2023-08-07T01:53:12;99933.03;;;13.84;97.26
81352;BME280;70809;52.184;13.422;2023-08-07T01:54:14;99938.34;;;13.84;97.39
81352;BME280;70809;52.184;13.422;2023-08-07T01:55:18;99934.91;;;13.74;97.35
81352;BME280;70809;52.184;13.422;2023-08-07T01:56:27;99949.13;;;13.69;97.72
81352;BME280;70809;52.184;13.422;2023-08-07T01:57:28;99937.66;;;13.68;97.83
81352;BME280;70809;52.184;13.422;2023-08-07T01:58:30;99934.97;;;13.71;97.78
81352;BME280;70809;52.184;13.422;2023-08-07T01:59:32;99934.88;;;13.76;97.55
81352;BME280;70809;52.184;13.422;2023-08-07T02:00:33;99940.25;;;13.73;97.67
81352;BME280;70809;52.184;13.422;2023-08-07T02:01:35;99941.97;;;13.78;97.45
81352;BME280;70809;52.184;13.422;2023-08-07T02:02:38;99942.84;;;13.76;97.26
81352;BME280;70809;52.184;13.422;2023-08-07T02:03:40;99942.00;;;13.74;97.54
81352;BME280;70809;52.184;13.422;2023-08-07T02:04:43;99939.25;;;13.83;97.42
81352;BME280;70809;52.184;13.422;2023-08-07T02:05:45;99940.91;;;13.92;96.98
81352;BME280;70809;52.184;13.422;2023-08-07T02:06:47;99940.88;;;13.93;97.15
81352;BME280;70809;52.184;13.422;2023-08-07T02:07:49;99936.50;;;13.89;96.81
81352;BME280;70809;52.184;13.422;2023-08-07T02:08:52;99938.50;;;13.72;97.54
81352;BME280;70809;52.184;13.422;2023-08-07T02:09:54;99936.72;;;13.72;97.81
81352;BME280;70809;52.184;13.422;2023-08-07T02:10:55;99936.78;;;13.68;97.96
81352;BME280;70809;52.184;13.422;2023-08-07T02:11:57;99940.34;;;13.64;98.04
81352;BME280;70809;52.184;13.422;2023-08-07T02:12:58;99939.47;;;13.63;98.23
81352;BME280;70809;52.184;13.422;2023-08-07T02:14:00;99939.53;;;13.57;98.87
81352;BME280;70809;52.184;13.422;2023-08-07T02:15:03;99935.97;;;13.61;98.44
81352;BME280;70809;52.184;13.422;2023-08-07T02:16:05;99941.19;;;13.69;98.75
81352;BME280;70809;52.184;13.422;2023-08-07T02:17:07;99945.66;;;13.64;98.46
81352;BME280;70809;52.184;13.422;2023-08-07T02:18:09;99942.94;;;13.71;98.49
81352;BME280;70809;52.184;13.422;2023-08-07T02:19:11;99948.16;;;13.77;98.37
81352;BME280;70809;52.184;13.422;2023-08-07T02:20:13;99946.28;;;13.86;97.63
81352;BME280;70809;52.184;13.422;2023-08-07T02:21:14;99949.72;;;13.92;97.03
81352;BME280;70809;52.184;13.422;2023-08-07T02:22:16;99948.25;;;13.68;97.19
81352;BME280;70809;52.184;13.422;2023-08-07T02:23:18;99950.91;;;13.71;97.72
81352;BME280;70809;52.184;13.422;2023-08-07T02:24:21;99942.91;;;13.73;97.75
81352;BME280;70809;52.184;13.422;2023-08-07T02:25:22;99947.31;;;13.74;97.37
81352;BME280;70809;52.184;13.422;2023-08-07T02:26:24;99942.84;;;13.76;97.25
81352;BME280;70809;52.184;13.422;2023-08-07T02:27:26;99944.59;;;13.80;97.39
81352;BME280;70809;52.184;13.422;2023-08-07T02:28:28;99944.63;;;13.75;97.07
81352;BME280;70809;52.184;13.422;2023-08-07T02:29:29;99957.09;;;13.69;97.36
81352;BME280;70809;52.184;13.422;2023-08-07T02:30:31;99949.94;;;13.75;97.09
81352;BME280;70809;52.184;13.422;2023-08-07T02:31:33;99945.44;;;13.84;96.88
81352;BME280;70809;52.184;13.422;2023-08-07T02:32:35;99944.47;;;13.88;96.45
81352;BME280;70809;52.184;13.422;2023-08-07T02:33:36;99950.81;;;13.76;96.58
81352;BME280;70809;52.184;13.422;2023-08-07T02:34:38;99952.72;;;13.66;97.07
81352;BME280;70809;52.184;13.422;2023-08-07T02:35:40;99957.97;;;13.72;97.12
81352;BME280;70809;52.184;13.422;2023-08-07T02:36:42;99956.19;;;13.73;96.37
81352;BME280;70809;52.184;13.422;2023-08-07T02:37:45;99956.09;;;13.79;96.23
81352;BME280;70809;52.184;13.422;2023-08-07T02:38:47;99955.31;;;13.69;96.59
81352;BME280;70809;52.184;13.422;2023-08-07T02:39:50;99954.44;;;13.72;96.71
81352;BME280;70809;52.184;13.422;2023-08-07T02:40:52;99946.44;;;13.73;96.53
81352;BME280;70809;52.184;13.422;2023-08-07T02:41:53;99952.47;;;13.86;96.11
81352;BME280;70809;52.184;13.422;2023-08-07T02:42:55;99952.69;;;13.68;96.49
81352;BME280;70809;52.184;13.422;2023-08-07T02:43:57;99952.72;;;13.66;96.63
81352;BME280;70809;52.184;13.422;2023-08-07T02:44:59;99957.22;;;13.60;96.67
81352;BME280;70809;52.184;13.422;2023-08-07T02:46:00;99959.09;;;13.50;97.15
81352;BME280;70809;52.184;13.422;2023-08-07T02:47:02;99957.28;;;13.52;97.43
81352;BME280;70809;52.184;13.422;2023-08-07T02:48:04;99958.16;;;13.52;96.77
81352;BME280;70809;52.184;13.422;2023-08-07T02:49:06;99961.59;;;13.64;96.94
81352;BME280;70809;52.184;13.422;2023-08-07T02:50:08;99963.38;;;13.62;96.47
81352;BME280;70809;52.184;13.422;2023-08-07T02:51:10;99965.22;;;13.57;96.21
81352;BME280;70809;52.184;13.422;2023-08-07T02:52:12;99960.69;;;13.65;96.54
81352;BME280;70809;52.184;13.422;2023-08-07T02:53:13;99960.72;;;13.62;95.71
81352;BME280;70809;52.184;13.422;2023-08-07T02:54:15;99977.63;;;13.54;96.19
81352;BME280;70809;52.184;13.422;2023-08-07T02:55:18;99978.38;;;13.64;96.30
81352;BME280;70809;52.184;13.422;2023-08-07T02:56:20;99969.59;;;13.61;96.71
81352;BME280;70809;52.184;13.422;2023-08-07T02:57:21;99974.03;;;13.60;96.12
81352;BME280;70809;52.184;13.422;2023-08-07T02:58:23;99974.13;;;13.49;96.29
81352;BME280;70809;52.184;13.422;2023-08-07T02:59:25;99969.72;;;13.50;96.45
81352;BME280;70809;52.184;13.422;2023-08-07T03:00:26;99975.03;;;13.48;97.04
81352;BME280;70809;52.184;13.422;2023-08-07T03:01:28;99972.28;;;13.59;96.54
81352;BME280;70809;52.184;13.422;2023-08-07T03:02:30;99974.03;;;13.59;96.51
81352;BME280;70809;52.184;13.422;2023-08-07T03:03:32;99972.34;;;13.51;96.46
81352;BME280;70809;52.184;13.422;2023-08-07T03:04:33;99975.88;;;13.52;96.66
81352;BME280;70809;52.184;13.422;2023-08-07T03:05:35;99982.09;;;13.49;96.53
81352;BME280;70809;52.184;13.422;2023-08-07T03:06:37;99982.78;;;13.68;96.16
81352;BME280;70809;52.184;13.422;2023-08-07T03:07:38;99983.69;;;13.67;95.78
81352;BME280;70809;52.184;13.422;2023-08-07T03:08:40;99989.91;;;13.63;96.40
81352;BME280;70809;52.184;13.422;2023-08-07T03:09:45;99983.78;;;13.57;95.94
81352;BME280;70809;52.184;13.422;2023-08-07T03:10:51;99987.28;;;13.59;96.21
81352;BME280;70809;52.184;13.422;2023-08-07T03:11:53;99985.53;;;13.59;96.42
81352;BME280;70809;52.184;13.422;2023-08-07T03:12:55;99992.59;;;13.60;96.47
81352;BME280;70809;52.184;13.422;2023-08-07T03:13:57;99981.13;;;13.57;96.54
81352;BME280;70809;52.184;13.422;2023-08-07T03:14:58;99993.47;;;13.62;96.77
81352;BME280;70809;52.184;13.422;2023-08-07T03:16:01;99989.84;;;13.68;96.34
81352;BME280;70809;52.184;13.422;2023-08-07T03:17:04;99982.91;;;13.56;95.89
81352;BME280;70809;52.184;13.422;2023-08-07T03:18:05;99984.72;;;13.54;96.90
81352;BME280;70809;52.184;13.422;2023-08-07T03:19:07;99984.72;;;13.54;96.92
81352;BME280;70809;52.184;13.422;2023-08-07T03:20:10;99988.19;;;13.61;96.97
81352;BME280;70809;52.184;13.422;2023-08-07T03:21:12;99982.06;;;13.52;96.86
81352;BME280;70809;52.184;13.422;2023-08-07T03:22:14;99985.56;;;13.56;96.81
81352;BME280;70809;52.184;13.422;2023-08-07T03:23:16;99981.03;;;13.67;96.92
81352;BME280;70809;52.184;13.422;2023-08-07T03:24:18;99985.47;;;13.65;96.21
81352;BME280;70809;52.184;13.422;2023-08-07T03:25:20;99984.63;;;13.62;96.62
81352;BME280;70809;52.184;13.422;2023-08-07T03:26:23;99993.56;;;13.51;96.99
81352;BME280;70809;52.184;13.422;2023-08-07T03:27:25;99995.34;;;13.54;96.90
81352;BME280;70809;52.184;13.422;2023-08-07T03:28:26;99986.34;;;13.66;96.73
81352;BME280;70809;52.184;13.422;2023-08-07T03:29:28;99990.84;;;13.61;97.00
81352;BME280;70809;52.184;13.422;2023-08-07T03:30:31;99991.72;;;13.58;96.83
81352;BME280;70809;52.184;13.422;2023-08-07T03:31:33;99998.78;;;13.61;97.07
81352;BME280;70809;52.184;13.422;2023-08-07T03:32:34;99999.75;;;13.53;96.94
81352;BME280;70809;52.184;13.422;2023-08-07T03:33:36;99999.69;;;13.60;97.24
81352;BME280;70809;52.184;13.422;2023-08-07T03:34:38;100002.28;;;13.63;96.70
81352;BME280;70809;52.184;13.422;2023-08-07T03:35:41;99998.84;;;13.54;96.82
81352;BME280;70809;52.184;13.422;2023-08-07T03:36:44;99997.91;;;13.60;97.00
81352;BME280;70809;52.184;13.422;2023-08-07T03:37:45;99997.91;;;13.60;96.98
81352;BME280;70809;52.184;13.422;2023-08-07T03:38:47;99996.06;;;13.67;96.70
81352;BME280;70809;52.184;13.422;2023-08-07T03:39:49;100004.06;;;13.64;96.79
81352;BME280;70809;52.184;13.422;2023-08-07T03:40:51;100000.59;;;13.57;96.87
81352;BME280;70809;52.184;13.422;2023-08-07T03:41:54;100001.47;;;13.58;96.93
81352;BME280;70809;52.184;13.422;2023-08-07T03:42:56;100002.34;;;13.60;97.09
81352;BME280;70809;52.184;13.422;2023-08-07T03:43:58;99999.72;;;13.55;96.88
81352;BME280;70809;52.184;13.422;2023-08-07T03:45:00;99999.66;;;13.63;97.53
81352;BME280;70809;52.184;13.422;2023-08-07T03:46:01;100002.28;;;13.63;97.21
81352;BME280;70809;52.184;13.422;2023-08-07T03:47:06;100004.06;;;13.64;97.20
81352;BME280;70809;52.184;13.422;2023-08-07T03:48:08;100001.47;;;13.59;97.12
81352;BME280;70809;52.184;13.422;2023-08-07T03:49:10;99997.16;;;13.49;97.22
81352;BME280;70809;52.184;13.422;2023-08-07T03:50:12;100005.94;;;13.52;97.76
81352;BME280;70809;52.184;13.422;2023-08-07T03:51:13;100004.94;;;13.64;97.82
81352;BME280;70809;52.184;13.422;2023-08-07T03:52:19;100016.41;;;13.68;97.11
81352;BME280;70809;52.184;13.422;2023-08-07T03:53:21;100004.78;;;13.78;96.94
81352;BME280;70809;52.184;13.422;2023-08-07T03:54:23;100007.41;;;13.81;96.83
81352;BME280;70809;52.184;13.422;2023-08-07T03:55:24;100014.59;;;13.71;96.93
81352;BME280;70809;52.184;13.422;2023-08-07T03:56:27;100004.16;;;13.54;97.45
81352;BME280;70809;52.184;13.422;2023-08-07T03:57:31;100006.78;;;13.56;97.38
81352;BME280;70809;52.184;13.422;2023-08-07T03:58:32;100006.88;;;13.48;97.42
81352;BME280;70809;52.184;13.422;2023-08-07T03:59:34;100004.06;;;13.62;97.60
81352;BME280;70809;52.184;13.422;2023-08-07T04:00:36;100008.47;;;13.66;97.06
81352;BME280;70809;52.184;13.422;2023-08-07T04:01:38;100007.66;;;13.58;97.20
81352;BME280;70809;52.184;13.422;2023-08-07T04:02:39;100013.06;;;13.47;97.65
81352;BME280;70809;52.184;13.422;2023-08-07T04:03:44;100008.69;;;13.45;97.32
81352;BME280;70809;52.184;13.422;2023-08-07T04:04:48;100005.03;;;13.57;97.55
81352;BME280;70809;52.184;13.422;2023-08-07T04:05:51;100001.63;;;13.42;97.61
81352;BME280;70809;52.184;13.422;2023-08-07T04:06:53;99998.91;;;13.48;97.93
81352;BME280;70809;52.184;13.422;2023-08-07T04:07:55;100006.00;;;13.48;97.91
81352;BME280;70809;52.184;13.422;2023-08-07T04:08:58;100001.50;;;13.54;97.71
81352;BME280;70809;52.184;13.422;2023-08-07T04:10:00;100000.63;;;13.52;97.61
81352;BME280;70809;52.184;13.422;2023-08-07T04:11:02;100006.78;;;13.59;97.31
81352;BME280;70809;52.184;13.422;2023-08-07T04:12:05;100005.09;;;13.50;97.55
81352;BME280;70809;52.184;13.422;2023-08-07T04:13:09;99997.84;;;13.66;97.60
81352;BME280;70809;52.184;13.422;2023-08-07T04:14:11;100006.63;;;13.73;96.88
81352;BME280;70809;52.184;13.422;2023-08-07T04:15:12;100002.38;;;13.55;96.96
81352;BME280;70809;52.184;13.422;2023-08-07T04:16:14;100013.03;;;13.53;96.99
81352;BME280;70809;52.184;13.422;2023-08-07T04:17:16;99999.75;;;13.52;97.22
81352;BME280;70809;52.184;13.422;2023-08-07T04:18:17;100013.91;;;13.54;97.29
81352;BME280;70809;52.184;13.422;2023-08-07T04:19:20;100009.44;;;13.56;97.25
81352;BME280;70809;52.184;13.422;2023-08-07T04:20:22;100014.78;;;13.51;97.13
81352;BME280;70809;52.184;13.422;2023-08-07T04:21:23;100006.03;;;13.43;97.31
81352;BME280;70809;52.184;13.422;2023-08-07T04:22:25;100018.38;;;13.47;97.27
81352;BME280;70809;52.184;13.422;2023-08-07T04:23:27;100005.03;;;13.57;97.07
81352;BME280;70809;52.184;13.422;2023-08-07T04:24:28;100002.34;;;13.60;97.26
81352;BME280;70809;52.184;13.422;2023-08-07T04:25:30;100013.03;;;13.50;97.44
81352;BME280;70809;52.184;13.422;2023-08-07T04:26:32;100004.22;;;13.47;97.70
81352;BME280;70809;52.184;13.422;2023-08-07T04:27:33;100013.03;;;13.50;97.22
81352;BME280;70809;52.184;13.422;2023-08-07T04:28:36;100015.72;;;13.47;97.22
81352;BME280;70809;52.184;13.422;2023-08-07T04:29:38;100012.13;;;13.53;97.45
81352;BME280;70809;52.184;13.422;2023-08-07T04:30:40;100008.63;;;13.49;97.31
81352;BME280;70809;52.184;13.422;2023-08-07T04:31:41;100011.34;;;13.45;97.46
81352;BME280;70809;52.184;13.422;2023-08-07T04:32:43;100013.06;;;13.47;97.39
81352;BME280;70809;52.184;13.422;2023-08-07T04:33:45;100017.53;;;13.44;97.44
81352;BME280;70809;52.184;13.422;2023-08-07T04:34:46;100011.31;;;13.48;97.38
81352;BME280;70809;52.184;13.422;2023-08-07T04:35:48;100015.69;;;13.50;97.61
81352;BME280;70809;52.184;13.422;2023-08-07T04:36:50;100010.34;;;13.55;97.30
81352;BME280;70809;52.184;13.422;2023-08-07T04:37:52;100021.94;;;13.48;97.18
81352;BME280;70809;52.184;13.422;2023-08-07T04:38:53;100022.72;;;13.53;97.13
81352;BME280;70809;52.184;13.422;2023-08-07T04:39:55;100023.69;;;13.46;97.23
81352;BME280;70809;52.184;13.422;2023-08-07T04:40:57;100018.44;;;13.41;97.22
81352;BME280;70809;52.184;13.422;2023-08-07T04:41:58;100018.44;;;13.41;96.88
81352;BME280;70809;52.184;13.422;2023-08-07T04:43:00;100017.50;;;13.45;97.07
81352;BME280;70809;52.184;13.422;2023-08-07T04:44:03;100016.56;;;13.52;96.95
81352;BME280;70809;52.184;13.422;2023-08-07T04:45:06;100020.16;;;13.45;97.10
81352;BME280;70809;52.184;13.422;2023-08-07T04:46:07;100026.34;;;13.49;97.23
81352;BME280;70809;52.184;13.422;2023-08-07T04:47:09;100022.81;;;13.45;96.99
81352;BME280;70809;52.184;13.422;2023-08-07T04:48:11;100022.75;;;13.54;97.43
81352;BME280;70809;52.184;13.422;2023-08-07T04:49:13;100020.81;;;13.69;96.91
81352;BME280;70809;52.184;13.422;2023-08-07T04:50:14;100029.75;;;13.59;96.22
81352;BME280;70809;52.184;13.422;2023-08-07T04:51:16;100021.72;;;13.68;96.14
81352;BME280;70809;52.184;13.422;2023-08-07T04:52:17;100027.88;;;13.70;96.19
81352;BME280;70809;52.184;13.422;2023-08-07T04:53:27;100021.72;;;13.68;95.67
81352;BME280;70809;52.184;13.422;2023-08-07T04:54:29;100024.16;;;13.86;95.44
81352;BME280;70809;52.184;13.422;2023-08-07T04:55:30;100024.22;;;13.80;95.04
81352;BME280;70809;52.184;13.422;2023-08-07T04:56:32;100031.38;;;13.76;94.82
81352;BME280;70809;52.184;13.422;2023-08-07T04:57:34;100027.94;;;13.65;95.64
81352;BME280;70809;52.184;13.422;2023-08-07T04:58:36;100039.44;;;13.66;95.77
81352;BME280;70809;52.184;13.422;2023-08-07T04:59:39;100028.91;;;13.57;95.77
81352;BME280;70809;52.184;13.422;2023-08-07T05:00:41;100032.41;;;13.62;95.75
81352;BME280;70809;52.184;13.422;2023-08-07T05:01:42;100025.16;;;13.77;95.51
81352;BME280;70809;52.184;13.422;2023-08-07T05:02:44;100032.25;;;13.77;95.10
81352;BME280;70809;52.184;13.422;2023-08-07T05:03:46;100032.25;;;13.74;94.96
81352;BME280;70809;52.184;13.422;2023-08-07T05:04:48;100023.47;;;13.69;95.12
81352;BME280;70809;52.184;13.422;2023-08-07T05:05:49;100029.69;;;13.65;95.87
81352;BME280;70809;52.184;13.422;2023-08-07T05:06:51;100029.75;;;13.62;95.71
81352;BME280;70809;52.184;13.422;2023-08-07T05:07:54;100036.88;;;13.57;95.82
81352;BME280;70809;52.184;13.422;2023-08-07T05:08:56;100025.34;;;13.58;95.90
81352;BME280;70809;52.184;13.422;2023-08-07T05:09:57;100027.03;;;13.66;95.69
81352;BME280;70809;52.184;13.422;2023-08-07T05:10:59;100040.28;;;13.68;95.19
81352;BME280;70809;52.184;13.422;2023-08-07T05:12:01;100029.66;;;13.69;95.64
81352;BME280;70809;52.184;13.422;2023-08-07T05:13:02;100029.69;;;13.68;95.25
81352;BME280;70809;52.184;13.422;2023-08-07T05:14:04;100027.91;;;13.68;95.66
81352;BME280;70809;52.184;13.422;2023-08-07T05:15:08;100032.41;;;13.59;95.31
81352;BME280;70809;52.184;13.422;2023-08-07T05:16:09;100033.34;;;13.56;95.85
81352;BME280;70809;52.184;13.422;2023-08-07T05:17:11;100039.44;;;13.66;95.24
81352;BME280;70809;52.184;13.422;2023-08-07T05:18:13;100037.72;;;13.59;94.67
81352;BME280;70809;52.184;13.422;2023-08-07T05:19:15;100041.22;;;13.62;95.24
81352;BME280;70809;52.184;13.422;2023-08-07T05:20:17;100035.06;;;13.60;95.26
81352;BME280;70809;52.184;13.422;2023-08-07T05:21:19;100039.50;;;13.60;95.16
81352;BME280;70809;52.184;13.422;2023-08-07T05:22:20;100041.22;;;13.64;95.12
81352;BME280;70809;52.184;13.422;2023-08-07T05:23:22;100033.16;;;13.73;94.48
81352;BME280;70809;52.184;13.422;2023-08-07T05:24:24;100038.59;;;13.61;95.00
81352;BME280;70809;52.184;13.422;2023-08-07T05:25:26;100036.69;;;13.73;94.96